Time;durP1;ratioP1;P1;durP2;ratioP2;P2;SDS_P1;SDS_P2;PMS_P1;PMS_P2;Temp;Humidity;BMP_temperature;BMP_pressure;BME280_temperature;BME280_humidity;BME280_pressure;Samples;Min_cycle;Max_cycle;Signal;HPM_P1;HPM_P2
2022/07/27 00:01:55;;;;;;;5.72;5.18;;;16.60;99.90;;;;;;5250221;28;20064;-71
2022/07/27 00:04:26;;;;;;;5.15;4.43;;;16.60;99.90;;;;;;5250830;28;20051;-70
2022/07/27 00:06:57;;;;;;;6.20;4.90;;;16.50;99.90;;;;;;5250473;28;20107;-71
2022/07/27 00:09:28;;;;;;;4.78;4.18;;;16.50;99.90;;;;;;5250490;28;20103;-71
2022/07/27 00:11:58;;;;;;;5.50;4.57;;;16.80;99.90;;;;;;5250383;28;20056;-71
2022/07/27 00:14:29;;;;;;;5.20;4.38;;;16.80;99.90;;;;;;5232617;28;20044;-71
2022/07/27 00:17:00;;;;;;;4.93;4.43;;;16.60;99.90;;;;;;5232414;28;20036;-71
2022/07/27 00:19:31;;;;;;;5.97;4.70;;;16.60;99.90;;;;;;5250286;28;20037;-71
2022/07/27 00:22:01;;;;;;;5.18;4.50;;;16.30;99.90;;;;;;5250369;28;20119;-71
2022/07/27 00:24:32;;;;;;;5.07;4.68;;;16.40;99.90;;;;;;5250437;28;20024;-71
2022/07/27 00:27:03;;;;;;;4.78;4.38;;;16.30;99.90;;;;;;5250122;28;20021;-71
2022/07/27 00:29:34;;;;;;;4.93;4.35;;;16.50;99.90;;;;;;5250081;28;20035;-71
2022/07/27 00:32:06;;;;;;;4.55;4.15;;;16.30;99.90;;;;;;5250154;28;20488;-71
2022/07/27 00:34:37;;;;;;;4.65;4.25;;;16.50;99.90;;;;;;5250294;28;20108;-70
2022/07/27 00:37:08;;;;;;;5.28;4.80;;;16.30;99.90;;;;;;5250516;28;20056;-71
2022/07/27 00:39:38;;;;;;;5.40;4.80;;;16.50;99.90;;;;;;5250266;28;20037;-70
2022/07/27 00:42:09;;;;;;;5.35;4.80;;;16.20;99.90;;;;;;5250123;28;20036;-70
2022/07/27 00:44:40;;;;;;;5.40;4.90;;;16.10;99.90;;;;;;5250324;28;20028;-71
2022/07/27 00:47:11;;;;;;;5.30;4.80;;;16.10;99.90;;;;;;5249806;28;20357;-71
2022/07/27 00:49:41;;;;;;;6.07;4.35;;;16.10;99.90;;;;;;5249838;28;20025;-70
2022/07/27 00:52:13;;;;;;;5.53;4.93;;;16.00;99.90;;;;;;5231924;28;20028;-71
2022/07/27 00:54:46;;;;;;;6.22;5.13;;;16.10;99.90;;;;;;5249855;28;20040;-72
2022/07/27 00:57:17;;;;;;;5.18;4.30;;;15.70;99.90;;;;;;5249712;28;20098;-71
2022/07/27 00:59:48;;;;;;;4.30;3.90;;;16.00;99.90;;;;;;5249460;28;20090;-71
2022/07/27 01:02:19;;;;;;;4.65;4.25;;;16.00;99.90;;;;;;5249531;28;20045;-71
2022/07/27 01:04:50;;;;;;;4.35;3.95;;;16.20;99.90;;;;;;5231543;28;20158;-71
2022/07/27 01:07:22;;;;;;;4.63;4.22;;;16.30;99.90;;;;;;5249383;28;20024;-70
2022/07/27 01:09:55;;;;;;;4.95;4.55;;;15.80;99.90;;;;;;5248944;28;20055;-70
2022/07/27 01:12:29;;;;;;;4.88;4.47;;;15.80;99.90;;;;;;5249437;28;20103;-71
2022/07/27 01:15:00;;;;;;;4.60;4.15;;;15.70;99.90;;;;;;5249402;28;20085;-71
2022/07/27 01:17:32;;;;;;;5.60;4.60;;;16.00;99.90;;;;;;5249274;28;20200;-70
2022/07/27 01:20:04;;;;;;;6.53;4.68;;;15.90;99.90;;;;;;5231122;28;20037;-71
2022/07/27 01:22:35;;;;;;;4.88;4.32;;;15.90;99.90;;;;;;5249410;28;20027;-71
2022/07/27 01:25:06;;;;;;;5.40;4.53;;;16.10;99.90;;;;;;5249226;28;20385;-71
2022/07/27 01:27:37;;;;;;;6.25;4.28;;;15.80;99.90;;;;;;5249096;28;20639;-70
2022/07/27 01:30:28;;;;;;;6.60;4.40;;;15.80;99.90;;;;;;5248938;28;20103;-71
2022/07/27 01:33:04;;;;;;;6.25;4.90;;;15.80;99.90;;;;;;5248676;28;20024;-70
2022/07/27 01:35:38;;;;;;;4.70;4.30;;;15.80;99.90;;;;;;5248896;28;20032;-71
2022/07/27 01:38:11;;;;;;;7.70;4.13;;;16.20;99.90;;;;;;5248749;28;20079;-70
2022/07/27 01:40:41;;;;;;;4.38;3.78;;;16.00;99.90;;;;;;5230825;28;20039;-71
2022/07/27 01:43:12;;;;;;;4.68;4.28;;;15.90;99.90;;;;;;5248824;28;20016;-71
2022/07/27 01:45:43;;;;;;;4.85;4.45;;;15.60;99.90;;;;;;5248674;28;20025;-70
2022/07/27 01:48:14;;;;;;;5.82;4.70;;;15.50;99.90;;;;;;5248627;28;20099;-71
2022/07/27 01:50:45;;;;;;;5.60;4.75;;;15.60;99.90;;;;;;5230601;28;20468;-71
2022/07/27 01:53:16;;;;;;;5.13;4.72;;;15.30;99.90;;;;;;5248542;28;20364;-71
2022/07/27 01:55:47;;;;;;;5.07;4.07;;;15.60;99.90;;;;;;5230670;28;20484;-71
2022/07/27 01:58:18;;;;;;;5.85;4.20;;;15.80;99.90;;;;;;5248267;28;20075;-70
2022/07/27 02:00:49;;;;;;;4.82;4.10;;;15.70;99.90;;;;;;5247854;28;20068;-71
2022/07/27 02:03:20;;;;;;;4.82;4.22;;;15.60;99.90;;;;;;5248370;28;20100;-70
2022/07/27 02:05:51;;;;;;;5.38;4.40;;;15.70;99.90;;;;;;5230215;28;20025;-70
2022/07/27 02:08:21;;;;;;;5.55;3.95;;;15.50;99.90;;;;;;5248342;28;20040;-72
2022/07/27 02:13:47;;;;;;;4.70;4.27;;;15.70;99.90;;;;;;5248373;28;20039;-70
2022/07/27 02:16:18;;;;;;;6.22;4.70;;;15.60;99.90;;;;;;5248080;28;20067;-70
2022/07/27 02:18:48;;;;;;;5.00;4.50;;;15.30;99.90;;;;;;5248004;28;20009;-72
2022/07/27 02:21:19;;;;;;;5.20;4.70;;;15.30;99.90;;;;;;5247435;28;20036;-70
2022/07/27 02:23:50;;;;;;;4.70;4.30;;;15.40;99.90;;;;;;5248110;28;20079;-70
2022/07/27 02:26:21;;;;;;;5.18;4.65;;;15.30;99.90;;;;;;5247853;28;20115;-70
2022/07/27 02:28:52;;;;;;;5.32;4.50;;;15.60;99.90;;;;;;5247527;28;20035;-70
2022/07/27 02:31:22;;;;;;;8.82;4.53;;;15.40;99.90;;;;;;5247696;28;20082;-71
2022/07/27 02:33:53;;;;;;;6.50;4.90;;;15.30;99.90;;;;;;5247414;28;20115;-71
2022/07/27 02:36:24;;;;;;;6.28;4.30;;;15.40;99.90;;;;;;5247760;28;20031;-70
2022/07/27 02:38:56;;;;;;;4.68;4.13;;;15.10;99.90;;;;;;5247489;28;20475;-71
2022/07/27 02:41:26;;;;;;;5.15;4.55;;;15.40;99.90;;;;;;5247659;28;20021;-70
2022/07/27 02:43:57;;;;;;;4.72;4.32;;;15.40;99.90;;;;;;5229812;28;20086;-70
2022/07/27 02:46:28;;;;;;;6.05;4.32;;;15.40;99.90;;;;;;5247648;28;20030;-70
2022/07/27 02:48:59;;;;;;;4.55;4.15;;;15.50;99.90;;;;;;5247654;28;20028;-70
2022/07/27 02:51:30;;;;;;;5.32;4.70;;;15.40;99.90;;;;;;5247523;28;20472;-70
2022/07/27 02:54:01;;;;;;;7.75;5.30;;;15.10;99.90;;;;;;5247471;28;20376;-70
2022/07/27 02:56:32;;;;;;;5.75;4.68;;;14.90;99.90;;;;;;5229393;28;20499;-71
2022/07/27 02:59:02;;;;;;;6.65;4.75;;;14.90;99.90;;;;;;5229281;28;20028;-70
2022/07/27 03:01:33;;;;;;;6.38;4.75;;;15.30;99.90;;;;;;5246884;28;20052;-70
2022/07/27 03:04:04;;;;;;;8.98;4.60;;;15.30;99.90;;;;;;5247444;28;20032;-70
2022/07/27 03:06:35;;;;;;;5.55;4.55;;;15.20;99.90;;;;;;5229269;28;20422;-70
2022/07/27 03:09:06;;;;;;;6.05;5.15;;;15.20;99.90;;;;;;5247025;28;20036;-72
2022/07/27 03:11:38;;;;;;;6.80;4.88;;;15.00;99.90;;;;;;5229215;28;20024;-70
2022/07/27 03:14:08;;;;;;;7.10;5.10;;;15.10;99.90;;;;;;5247405;28;20021;-70
2022/07/27 03:16:39;;;;;;;5.32;4.82;;;15.30;99.90;;;;;;5247152;28;20569;-70
2022/07/27 03:19:11;;;;;;;6.43;4.53;;;15.50;99.90;;;;;;5247155;28;20033;-71
2022/07/27 03:21:41;;;;;;;7.53;4.22;;;15.50;99.90;;;;;;5247146;28;20078;-71
2022/07/27 03:24:12;;;;;;;6.38;4.50;;;15.50;99.90;;;;;;5247084;28;20519;-70
2022/07/27 03:26:43;;;;;;;5.63;4.95;;;15.20;99.90;;;;;;5247166;28;20121;-70
2022/07/27 03:29:14;;;;;;;6.45;5.82;;;15.20;99.90;;;;;;5246877;28;20047;-70
2022/07/27 03:31:44;;;;;;;6.35;5.70;;;14.80;99.90;;;;;;5247845;28;20036;-70
2022/07/27 03:34:16;;;;;;;6.43;5.10;;;15.20;99.90;;;;;;5251256;28;20024;-73
2022/07/27 03:36:47;;;;;;;5.80;5.10;;;15.20;99.90;;;;;;5251137;28;20036;-71
2022/07/27 03:39:17;;;;;;;6.55;5.13;;;15.50;99.90;;;;;;5251055;28;20032;-70
2022/07/27 03:41:48;;;;;;;5.90;5.28;;;15.60;99.90;;;;;;5251093;28;20102;-71
2022/07/27 03:44:19;;;;;;;5.90;5.30;;;15.70;99.90;;;;;;5250948;28;20154;-70
2022/07/27 03:46:50;;;;;;;6.20;5.18;;;15.50;99.90;;;;;;5233101;28;20431;-71
2022/07/27 03:49:20;;;;;;;5.72;5.13;;;15.70;99.90;;;;;;5250946;28;20031;-71
2022/07/27 03:51:51;;;;;;;6.57;5.47;;;15.60;99.90;;;;;;5232944;28;20043;-71
2022/07/27 03:54:22;;;;;;;7.22;5.40;;;15.70;99.90;;;;;;5250835;28;20009;-71
2022/07/27 03:56:53;;;;;;;6.60;4.93;;;15.60;99.90;;;;;;5250841;28;20032;-71
2022/07/27 03:59:24;;;;;;;6.18;5.30;;;15.60;99.90;;;;;;5250464;28;20020;-70
2022/07/27 04:01:54;;;;;;;5.32;4.82;;;15.90;99.90;;;;;;5250390;28;20055;-71
2022/07/27 04:04:25;;;;;;;6.13;5.10;;;16.10;99.90;;;;;;5250696;28;20047;-70
2022/07/27 04:06:56;;;;;;;5.43;5.00;;;15.90;99.90;;;;;;5232587;28;20747;-71
2022/07/27 04:09:27;;;;;;;5.43;4.65;;;16.10;99.90;;;;;;5232626;28;20021;-71
2022/07/27 04:11:58;;;;;;;6.60;5.00;;;16.00;99.90;;;;;;5250442;28;20023;-71
2022/07/27 04:14:29;;;;;;;5.35;4.60;;;16.10;99.90;;;;;;5250596;28;20029;-71
2022/07/27 04:17:00;;;;;;;6.45;5.05;;;16.40;99.90;;;;;;5250440;28;20326;-70
2022/07/27 04:19:30;;;;;;;6.00;5.10;;;16.60;99.90;;;;;;5250363;28;20102;-70
2022/07/27 04:22:02;;;;;;;4.70;4.20;;;16.60;99.90;;;;;;5232550;28;20507;-71
2022/07/27 04:24:32;;;;;;;7.65;4.65;;;16.70;99.90;;;;;;5251027;28;20534;-70
2022/07/27 04:27:03;;;;;;;6.55;5.03;;;16.90;99.90;;;;;;5250681;28;20025;-71
2022/07/27 04:29:34;;;;;;;6.28;4.90;;;17.00;99.90;;;;;;5250389;28;20060;-71
2022/07/27 04:32:05;;;;;;;6.68;4.82;;;16.80;99.90;;;;;;5250159;28;20025;-71
2022/07/27 04:34:36;;;;;;;5.13;4.57;;;17.20;99.90;;;;;;5250141;28;20035;-71
2022/07/27 04:37:07;;;;;;;6.68;5.43;;;17.40;99.90;;;;;;5250118;28;20021;-71
2022/07/27 04:39:37;;;;;;;5.95;5.32;;;17.50;99.90;;;;;;5250050;28;20112;-71
2022/07/27 04:42:08;;;;;;;8.32;5.50;;;17.60;99.90;;;;;;5250055;28;20078;-71
2022/07/27 04:44:39;;;;;;;5.75;5.15;;;17.30;99.90;;;;;;5231115;28;20055;-72
2022/07/27 04:47:10;;;;;;;6.03;5.03;;;17.50;99.90;;;;;;5250017;28;20367;-71
2022/07/27 04:49:40;;;;;;;8.27;4.55;;;17.70;99.90;;;;;;5249937;28;20033;-71
2022/07/27 04:52:14;;;;;;;5.20;4.55;;;17.80;99.90;;;;;;5231742;28;20016;-72
2022/07/27 04:55:01;;;;;;;6.32;4.90;;;17.90;99.90;;;;;;5231804;28;20056;-71
2022/07/27 04:57:42;;;;;;;5.45;4.35;;;18.30;99.90;;;;;;5249846;28;20021;-71
2022/07/27 05:00:18;;;;;;;5.40;4.07;;;18.50;99.90;;;;;;5248900;28;20036;-71
2022/07/27 05:02:53;;;;;;;5.13;4.30;;;18.40;99.90;;;;;;5226951;28;20060;-71
2022/07/27 05:05:28;;;;;;;6.85;4.70;;;18.70;99.90;;;;;;5227971;28;20496;-71
2022/07/27 05:08:12;;;;;;;6.43;4.43;;;18.90;99.90;;;;;;5228898;28;20129;-71
2022/07/27 05:10:49;;;;;;;5.65;4.28;;;19.10;99.90;;;;;;5224817;28;20033;-73
2022/07/27 05:13:20;;;;;;;6.03;4.32;;;19.40;99.90;;;;;;5228825;28;20028;-71
2022/07/27 05:15:51;;;;;;;5.93;4.40;;;19.20;99.90;;;;;;5227418;28;20032;-71
2022/07/27 05:18:22;;;;;;;6.68;4.38;;;19.70;99.90;;;;;;5228667;28;20453;-71
2022/07/27 05:20:53;;;;;;;8.88;4.75;;;19.90;99.90;;;;;;5218899;28;20485;-72
2022/07/27 05:23:24;;;;;;;7.45;4.68;;;20.30;99.90;;;;;;5207907;28;20071;-71
2022/07/27 05:25:55;;;;;;;4.88;3.75;;;20.40;99.90;;;;;;5207569;28;20358;-71
2022/07/27 05:28:26;;;;;;;4.57;3.97;;;20.60;99.90;;;;;;5207842;28;20377;-71
2022/07/27 05:30:56;;;;;;;6.03;4.20;;;20.80;99.90;;;;;;5207740;28;20183;-70
2022/07/27 05:33:27;;;;;;;6.20;4.00;;;20.90;99.90;;;;;;5209168;28;20530;-71
2022/07/27 05:35:58;;;;;;;5.65;3.83;;;21.30;99.90;;;;;;5228212;28;20094;-71
2022/07/27 05:38:29;;;;;;;7.82;4.38;;;21.50;99.90;;;;;;5208796;28;20108;-71
2022/07/27 05:41:02;;;;;;;5.57;3.60;;;21.80;99.90;;;;;;5206297;28;20052;-72
2022/07/27 05:43:33;;;;;;;3.85;3.45;;;22.10;99.90;;;;;;5211005;28;20061;-71
2022/07/27 05:46:04;;;;;;;3.92;3.35;;;22.20;99.90;;;;;;5218554;28;20501;-71
2022/07/27 05:48:35;;;;;;;6.10;3.88;;;22.30;99.90;;;;;;5219234;28;20036;-71
2022/07/27 05:51:05;;;;;;;3.95;3.28;;;22.40;99.90;;;;;;5219296;28;20075;-72
2022/07/27 05:53:37;;;;;;;5.13;3.70;;;22.70;99.90;;;;;;5216362;28;20060;-72
2022/07/27 05:56:08;;;;;;;3.95;3.42;;;23.00;99.90;;;;;;5215587;28;20080;-72
2022/07/27 05:58:39;;;;;;;5.88;3.20;;;23.10;99.90;;;;;;5213348;28;20017;-71
2022/07/27 06:01:10;;;;;;;5.63;3.65;;;23.60;99.90;;;;;;5214643;28;20401;-72
2022/07/27 06:03:41;;;;;;;18.30;3.60;;;23.80;99.90;;;;;;5215918;28;20051;-73
2022/07/27 06:09:03;;;;;;;8.40;3.85;;;24.10;99.90;;;;;;5208026;28;20090;-71
2022/07/27 06:11:35;;;;;;;9.80;3.88;;;24.20;99.90;;;;;;5213282;28;20392;-72
2022/07/27 06:14:06;;;;;;;8.93;3.85;;;24.30;99.90;;;;;;5216697;28;20013;-71
2022/07/27 06:16:37;;;;;;;8.60;3.78;;;24.60;99.90;;;;;;5214512;28;20107;-72
2022/07/27 06:19:08;;;;;;;6.40;3.35;;;25.00;99.90;;;;;;5216582;28;20112;-72
2022/07/27 06:21:39;;;;;;;6.80;3.50;;;25.20;99.90;;;;;;5210613;28;20098;-72
2022/07/27 06:24:10;;;;;;;5.88;3.60;;;25.10;99.90;;;;;;5209404;28;20056;-72
2022/07/27 06:26:41;;;;;;;5.38;3.63;;;25.40;99.90;;;;;;5210630;28;20539;-71
2022/07/27 06:29:12;;;;;;;8.20;2.80;;;25.40;99.90;;;;;;5212945;28;20033;-72
2022/07/27 06:31:42;;;;;;;5.57;2.60;;;25.50;99.90;;;;;;5217621;28;20532;-72
2022/07/27 06:34:13;;;;;;;104.22;8.98;;;25.60;99.90;;;;;;5208428;28;20473;-72
2022/07/27 06:36:44;;;;;;;7.38;3.20;;;25.60;99.90;;;;;;5209180;28;20075;-72
2022/07/27 06:39:15;;;;;;;100.25;7.43;;;25.60;99.90;;;;;;5214862;28;20036;-71
2022/07/27 06:41:49;;;;;;;11.40;3.20;;;25.60;99.90;;;;;;5211601;28;20057;-72
2022/07/27 06:44:20;;;;;;;4.00;2.47;;;25.80;99.90;;;;;;5215626;28;20412;-72
2022/07/27 06:46:50;;;;;;;8.98;3.00;;;26.00;99.90;;;;;;5215868;28;20034;-72
2022/07/27 06:49:21;;;;;;;7.78;2.40;;;26.10;99.90;;;;;;5210703;28;20818;-73
2022/07/27 06:51:52;;;;;;;108.35;8.15;;;26.20;99.90;;;;;;5208165;28;20366;-73
2022/07/27 06:54:23;;;;;;;19.15;2.83;;;26.20;99.90;;;;;;5216839;28;20017;-73
2022/07/27 06:56:53;;;;;;;6.70;2.70;;;26.50;99.90;;;;;;5214172;28;20485;-73
2022/07/27 06:59:25;;;;;;;5.47;2.58;;;26.60;99.90;;;;;;5212279;28;20476;-73
2022/07/27 07:01:56;;;;;;;5.03;2.45;;;26.60;99.90;;;;;;5201056;28;20057;-73
2022/07/27 07:04:27;;;;;;;4.07;2.50;;;26.40;99.90;;;;;;5194724;28;20018;-73
2022/07/27 07:06:59;;;;;;;5.10;2.28;;;26.80;99.90;;;;;;5196989;28;20048;-73
2022/07/27 07:09:30;;;;;;;4.47;2.20;;;26.80;99.90;;;;;;5194676;28;20025;-72
2022/07/27 07:12:01;;;;;;;4.68;2.13;;;26.90;99.90;;;;;;5197715;28;20026;-72
2022/07/27 07:14:32;;;;;;;10.18;2.72;;;26.80;99.90;;;;;;5196490;28;20041;-73
2022/07/27 07:17:03;;;;;;;3.22;2.40;;;27.00;99.90;;;;;;5195798;28;20041;-73
2022/07/27 07:19:33;;;;;;;11.15;2.53;;;27.20;99.90;;;;;;5211462;28;20056;-73
2022/07/27 07:22:04;;;;;;;3.78;2.22;;;27.00;99.90;;;;;;5199521;28;20028;-73
2022/07/27 07:24:35;;;;;;;3.85;2.17;;;27.20;99.90;;;;;;5193907;28;20053;-73
2022/07/27 07:27:06;;;;;;;6.15;2.08;;;27.30;99.90;;;;;;5193876;28;20070;-73
2022/07/27 07:29:37;;;;;;;47.80;3.90;;;27.30;99.90;;;;;;5196418;28;20029;-73
2022/07/27 07:32:07;;;;;;;5.45;1.80;;;27.30;99.90;;;;;;5196406;28;20840;-73
2022/07/27 07:34:38;;;;;;;3.28;1.80;;;27.10;99.90;;;;;;5188712;28;20022;-73
2022/07/27 07:37:09;;;;;;;2.15;1.95;;;27.50;99.90;;;;;;5197494;28;20025;-73
2022/07/27 07:39:40;;;;;;;6.38;1.90;;;27.60;99.90;;;;;;5198920;28;20045;-73
2022/07/27 07:42:11;;;;;;;6.18;1.92;;;27.60;99.90;;;;;;5185568;28;20128;-73
2022/07/27 07:44:42;;;;;;;5.13;1.90;;;27.60;99.90;;;;;;5195534;28;20050;-73
2022/07/27 07:47:12;;;;;;;3.55;1.80;;;28.00;99.90;;;;;;5195257;28;20068;-73
2022/07/27 07:49:43;;;;;;;4.78;1.95;;;27.80;99.90;;;;;;5190341;28;20529;-74
2022/07/27 07:52:14;;;;;;;6.25;1.75;;;27.70;99.90;;;;;;5190700;28;20130;-73
2022/07/27 07:54:45;;;;;;;6.50;2.00;;;27.90;99.90;;;;;;5196703;28;20096;-73
2022/07/27 07:57:16;;;;;;;3.00;1.63;;;27.90;99.90;;;;;;5192776;28;20030;-74
2022/07/27 07:59:47;;;;;;;4.97;1.98;;;28.30;99.90;;;;;;5192566;28;20041;-74
2022/07/27 08:02:19;;;;;;;8.73;1.85;;;28.30;99.90;;;;;;5210309;28;20056;-73
2022/07/27 08:04:50;;;;;;;2.67;1.70;;;28.20;99.90;;;;;;5211672;28;20120;-73
2022/07/27 08:07:21;;;;;;;2.58;1.73;;;28.00;99.90;;;;;;5207537;28;20096;-72
2022/07/27 08:09:51;;;;;;;4.68;1.80;;;28.10;99.90;;;;;;5213363;28;20033;-73
2022/07/27 08:12:22;;;;;;;4.25;1.98;;;28.30;99.90;;;;;;5217613;28;20666;-73
2022/07/27 08:14:53;;;;;;;5.55;2.38;;;28.10;99.90;;;;;;5215261;28;20044;-73
2022/07/27 08:17:24;;;;;;;13.10;2.15;;;28.30;99.90;;;;;;5212063;28;20063;-72
2022/07/27 08:19:55;;;;;;;5.05;2.30;;;28.40;99.90;;;;;;5221056;28;20048;-73
2022/07/27 08:22:26;;;;;;;8.05;3.80;;;28.10;99.90;;;;;;5216980;28;20025;-72
2022/07/27 08:24:57;;;;;;;9.93;2.50;;;28.50;99.90;;;;;;5213852;28;20026;-72
2022/07/27 08:27:28;;;;;;;4.28;1.75;;;28.90;99.90;;;;;;5219789;28;20082;-72
2022/07/27 08:29:58;;;;;;;5.18;1.92;;;28.70;99.90;;;;;;5221061;28;20040;-74
2022/07/27 08:32:29;;;;;;;2.42;1.88;;;28.50;99.90;;;;;;5218623;28;20048;-72
2022/07/27 08:35:00;;;;;;;2.85;1.58;;;28.60;99.90;;;;;;5218465;28;20025;-71
2022/07/27 08:37:31;;;;;;;5.07;1.95;;;28.70;99.90;;;;;;5212600;28;20054;-72
2022/07/27 08:40:02;;;;;;;6.78;2.78;;;28.90;99.90;;;;;;5213804;28;20041;-71
2022/07/27 08:42:33;;;;;;;10.85;2.83;;;29.00;99.90;;;;;;5217363;28;20049;-72
2022/07/27 08:45:04;;;;;;;6.63;3.20;;;28.90;99.90;;;;;;5214483;28;20080;-71
2022/07/27 08:47:37;;;;;;;5.50;1.65;;;29.00;99.90;;;;;;5213244;28;20029;-73
2022/07/27 08:50:22;;;;;;;2.28;1.40;;;29.20;99.90;;;;;;5215946;28;20030;-72
2022/07/27 08:53:02;;;;;;;61.33;4.13;;;28.90;99.90;;;;;;5221132;28;20017;-73
2022/07/27 08:55:36;;;;;;;9.90;1.95;;;29.00;99.90;;;;;;5221774;28;20044;-72
2022/07/27 08:58:09;;;;;;;6.88;3.63;;;29.30;99.90;;;;;;5216833;28;20094;-73
2022/07/27 09:00:42;;;;;;;9.70;3.80;;;29.40;99.90;;;;;;5215877;28;20110;-73
2022/07/27 09:03:14;;;;;;;5.38;1.77;;;29.10;99.90;;;;;;5219701;28;20040;-73
2022/07/27 09:05:49;;;;;;;15.82;2.70;;;29.30;99.90;;;;;;5221611;28;20033;-73
2022/07/27 09:08:23;;;;;;;5.60;2.22;;;29.80;99.90;;;;;;5234000;28;20013;-73
2022/07/27 09:10:56;;;;;;;4.22;1.88;;;29.70;99.90;;;;;;5237420;28;20478;-72
2022/07/27 09:13:32;;;;;;;3.90;2.03;;;28.60;99.90;;;;;;5233119;28;20492;-72
2022/07/27 09:16:06;;;;;;;2.67;1.35;;;29.40;99.90;;;;;;5242164;28;20028;-73
2022/07/27 09:18:38;;;;;;;9.02;2.35;;;29.70;99.90;;;;;;5242854;28;20025;-72
2022/07/27 09:21:23;;;;;;;4.47;1.90;;;29.80;99.90;;;;;;5237556;28;20425;-72
2022/07/27 09:24:08;;;;;;;4.35;1.50;;;29.70;99.90;;;;;;5236737;28;20028;-73
2022/07/27 09:26:41;;;;;;;9.20;2.90;;;29.50;99.90;;;;;;5213922;28;20036;-72
2022/07/27 09:29:14;;;;;;;4.18;1.63;;;29.40;99.90;;;;;;5235221;28;20039;-72
2022/07/27 09:31:48;;;;;;;3.20;1.60;;;29.70;99.90;;;;;;5238623;28;20056;-72
2022/07/27 09:34:32;;;;;;;7.43;2.42;;;29.90;99.90;;;;;;5242096;28;20170;-73
2022/07/27 09:37:05;;;;;;;2.05;1.58;;;30.20;99.90;;;;;;5214675;28;20029;-72
2022/07/27 09:39:37;;;;;;;3.75;1.63;;;29.90;99.90;;;;;;5215525;28;20036;-72
2022/07/27 09:42:15;;;;;;;3.38;1.85;;;30.30;99.90;;;;;;5219369;28;20025;-72
2022/07/27 09:44:45;;;;;;;5.90;1.83;;;29.60;99.90;;;;;;5235137;28;20020;-72
2022/07/27 09:47:25;;;;;;;5.95;1.88;;;29.50;99.90;;;;;;5243334;28;20428;-73
2022/07/27 09:50:17;;;;;;;2.40;1.50;;;30.30;99.90;;;;;;5234235;28;20419;-72
2022/07/27 09:52:48;;;;;;;15.80;2.67;;;30.60;99.90;;;;;;5215167;28;20025;-72
2022/07/27 09:55:20;;;;;;;6.45;1.80;;;30.30;99.90;;;;;;5235321;28;20035;-72
2022/07/27 09:57:51;;;;;;;74.65;4.95;;;30.40;99.90;;;;;;5232967;28;20028;-73
2022/07/27 10:00:24;;;;;;;7.30;1.75;;;30.60;99.90;;;;;;5235084;28;20044;-73
2022/07/27 10:02:55;;;;;;;2.50;1.58;;;30.40;99.90;;;;;;5214369;28;20040;-72
2022/07/27 10:05:26;;;;;;;6.90;1.80;;;30.50;99.90;;;;;;5237232;28;20081;-72
2022/07/27 10:07:57;;;;;;;7.35;1.85;;;30.10;99.90;;;;;;5215152;28;20059;-72
2022/07/27 10:10:28;;;;;;;1.88;1.40;;;30.50;99.90;;;;;;5235864;28;20021;-72
2022/07/27 10:12:58;;;;;;;4.13;1.67;;;30.30;99.90;;;;;;5241059;28;20092;-71
2022/07/27 10:15:30;;;;;;;3.03;1.60;;;29.90;99.90;;;;;;5234907;28;20029;-71
2022/07/27 10:18:09;;;;;;;4.85;1.67;;;30.20;99.90;;;;;;5232477;28;20493;-71
2022/07/27 10:20:43;;;;;;;5.05;1.55;;;30.30;99.90;;;;;;5241610;28;20041;-72
2022/07/27 10:23:27;;;;;;;4.00;1.92;;;30.30;99.90;;;;;;5217369;28;20577;-71
2022/07/27 10:26:19;;;;;;;4.55;1.52;;;30.70;99.90;;;;;;5235333;28;20025;-72
2022/07/27 10:28:58;;;;;;;2.80;1.80;;;30.00;99.90;;;;;;5702035;23;20044;-71
2022/07/27 10:31:34;;;;;;;550.33;37.25;;;30.40;99.90;;;;;;5248196;28;20033;-71
2022/07/27 10:34:07;;;;;;;5.18;1.95;;;31.10;99.90;;;;;;5248720;28;20029;-72
2022/07/27 10:36:47;;;;;;;7.80;1.98;;;31.10;99.90;;;;;;5248646;28;20028;-72
2022/07/27 10:39:33;;;;;;;5.65;1.92;;;30.30;99.90;;;;;;5250527;28;20028;-72
2022/07/27 10:42:25;;;;;;;2.75;1.85;;;29.00;99.90;;;;;;5254889;28;20020;-73
2022/07/27 10:44:59;;;;;;;3.53;1.80;;;30.70;99.90;;;;;;5254295;28;20028;-72
2022/07/27 10:47:36;;;;;;;5.47;1.60;;;30.90;99.90;;;;;;5239247;28;20070;-72
2022/07/27 10:50:16;;;;;;;7.13;1.50;;;31.00;99.90;;;;;;5255378;28;20021;-72
2022/07/27 10:52:51;;;;;;;3.95;1.65;;;30.80;99.90;;;;;;5238505;28;20027;-71
2022/07/27 10:55:32;;;;;;;5.45;1.70;;;31.40;99.90;;;;;;5256365;28;20102;-72
2022/07/27 10:58:29;;;;;;;4.45;1.65;;;31.30;99.90;;;;;;5244798;28;20028;-72
2022/07/27 11:01:02;;;;;;;3.80;1.80;;;31.10;99.90;;;;;;5161318;28;20053;-72
2022/07/27 11:03:36;;;;;;;4.00;1.67;;;30.60;99.90;;;;;;5165533;28;20034;-71
2022/07/27 11:06:11;;;;;;;6.38;1.80;;;30.80;99.90;;;;;;5169284;28;20120;-73
2022/07/27 11:08:44;;;;;;;2.80;1.73;;;30.50;99.90;;;;;;5168593;28;20145;-72
2022/07/27 11:11:20;;;;;;;5.85;1.80;;;31.10;99.90;;;;;;5165607;28;20037;-72
2022/07/27 11:13:55;;;;;;;3.45;2.00;;;31.00;99.90;;;;;;5173172;28;20057;-72
2022/07/27 11:16:27;;;;;;;5.53;2.10;;;31.10;99.90;;;;;;5145463;28;20018;-73
2022/07/27 11:19:02;;;;;;;8.15;1.90;;;31.50;99.90;;;;;;5172062;28;20037;-72
2022/07/27 11:21:34;;;;;;;2.65;1.60;;;31.80;99.90;;;;;;5160211;28;20042;-73
2022/07/27 11:24:16;;;;;;;6.75;2.28;;;31.40;99.90;;;;;;5168613;28;20071;-72
2022/07/27 11:26:50;;;;;;;3.78;1.70;;;31.00;99.90;;;;;;5174636;28;20040;-73
2022/07/27 11:29:23;;;;;;;3.40;1.88;;;31.20;99.90;;;;;;5148069;28;20049;-72
2022/07/27 11:31:56;;;;;;;2.92;1.58;;;31.40;99.90;;;;;;5171460;28;20042;-73
2022/07/27 11:34:32;;;;;;;40.25;3.20;;;31.30;99.90;;;;;;5152344;28;20156;-72
2022/07/27 11:37:12;;;;;;;9.00;2.15;;;31.50;99.90;;;;;;5156323;28;20042;-73
2022/07/27 11:39:44;;;;;;;7.03;1.77;;;31.10;99.90;;;;;;5211549;28;20072;-73
2022/07/27 11:42:15;;;;;;;4.80;1.85;;;31.50;99.90;;;;;;5211876;28;20361;-72
2022/07/27 11:44:46;;;;;;;1.73;1.50;;;31.60;99.90;;;;;;5218287;28;20104;-73
2022/07/27 11:47:18;;;;;;;4.95;1.58;;;31.10;99.90;;;;;;5211339;28;20041;-72
2022/07/27 11:49:49;;;;;;;2.40;1.60;;;31.00;99.90;;;;;;5214649;28;20108;-72
2022/07/27 11:52:20;;;;;;;6.85;1.70;;;31.30;99.90;;;;;;5210316;28;20111;-72
2022/07/27 11:54:51;;;;;;;6.65;1.58;;;31.10;99.90;;;;;;5216231;28;20021;-72
2022/07/27 11:57:31;;;;;;;4.82;1.60;;;31.40;99.90;;;;;;5214731;28;20026;-72
2022/07/27 12:00:03;;;;;;;8.65;2.05;;;30.90;99.90;;;;;;5220509;28;20047;-72
2022/07/27 12:02:33;;;;;;;6.05;1.90;;;31.00;99.90;;;;;;5218523;28;20369;-71
2022/07/27 12:05:09;;;;;;;5.63;1.80;;;30.80;99.90;;;;;;5218276;28;20730;-71
2022/07/27 12:07:43;;;;;;;3.45;1.70;;;31.20;99.90;;;;;;5213733;28;20031;-72
2022/07/27 12:10:13;;;;;;;3.20;1.65;;;30.80;99.90;;;;;;5215424;28;20025;-71
2022/07/27 12:12:48;;;;;;;9.85;1.83;;;30.80;99.90;;;;;;5214728;28;20793;-71
2022/07/27 12:15:19;;;;;;;5.68;1.60;;;29.30;99.90;;;;;;5221400;28;20092;-72
2022/07/27 12:17:56;;;;;;;4.95;1.40;;;30.40;99.90;;;;;;5210398;28;20755;-72
2022/07/27 12:20:34;;;;;;;6.65;1.95;;;30.80;99.90;;;;;;5216638;28;20036;-72
2022/07/27 12:23:07;;;;;;;5.67;1.87;;;31.10;99.90;;;;;;5214861;28;20025;-72
2022/07/27 12:25:40;;;;;;;2.38;1.60;;;31.00;99.90;;;;;;5215384;28;20056;-72
2022/07/27 12:28:14;;;;;;;4.60;1.85;;;30.70;99.90;;;;;;5214302;28;20029;-72
2022/07/27 12:30:47;;;;;;;13.90;2.03;;;31.30;99.90;;;;;;5236181;28;20057;-72
2022/07/27 12:33:36;;;;;;;4.85;1.80;;;31.40;99.90;;;;;;5219119;28;20112;-71
2022/07/27 12:36:08;;;;;;;4.60;1.60;;;31.70;99.90;;;;;;5234837;28;20151;-72
2022/07/27 12:38:49;;;;;;;2.55;1.58;;;31.30;99.90;;;;;;5223828;28;20017;-71
2022/07/27 12:41:29;;;;;;;4.70;1.60;;;31.10;99.90;;;;;;5229808;28;20037;-72
2022/07/27 12:44:10;;;;;;;5.10;1.77;;;30.90;99.90;;;;;;5221393;28;20017;-72
2022/07/27 12:50:05;;;;;;;4.07;2.00;;;30.80;99.90;;;;;;5229866;28;20447;-71
2022/07/27 12:52:49;;;;;;;4.47;2.10;;;30.90;99.90;;;;;;5239409;28;20027;-71
2022/07/27 12:55:22;;;;;;;56.30;3.35;;;31.60;99.90;;;;;;5235435;28;20052;-73
2022/07/27 12:57:52;;;;;;;9.55;2.00;;;30.90;99.90;;;;;;5220969;28;20078;-72
2022/07/27 13:00:25;;;;;;;7.70;2.08;;;31.30;99.90;;;;;;5238853;28;20053;-73
2022/07/27 13:02:58;;;;;;;5.88;1.75;;;31.60;99.90;;;;;;5236181;28;20020;-72
2022/07/27 13:05:29;;;;;;;2.83;1.55;;;30.90;99.90;;;;;;5241415;28;20032;-72
2022/07/27 13:08:02;;;;;;;2.25;1.88;;;30.20;99.90;;;;;;5236987;28;20110;-72
2022/07/27 13:10:35;;;;;;;9.32;2.15;;;30.60;99.90;;;;;;5230666;28;20491;-73
2022/07/27 13:13:07;;;;;;;2.03;1.55;;;30.10;99.90;;;;;;5235978;28;20015;-72
2022/07/27 13:15:37;;;;;;;4.15;1.58;;;30.40;99.90;;;;;;5239181;28;20025;-73
2022/07/27 13:18:08;;;;;;;5.88;1.77;;;30.80;99.90;;;;;;5231563;28;20040;-72
2022/07/27 13:20:41;;;;;;;4.10;1.80;;;31.00;99.90;;;;;;5230078;28;20048;-73
2022/07/27 13:23:12;;;;;;;5.70;1.80;;;31.40;99.90;;;;;;5236941;28;20033;-71